sensor_id;sensor_type;location;lat;lon;timestamp;P1;durP1;ratioP1;P2;durP2;ratioP2
42602;SDS011;28233;55.748;48.752;2023-07-09T00:00:53;8.57;;;6.70;;
42602;SDS011;28233;55.748;48.752;2023-07-09T00:02:56;12.05;;;7.25;;
42602;SDS011;28233;55.748;48.752;2023-07-09T00:05:00;11.70;;;7.72;;
42602;SDS011;28233;55.748;48.752;2023-07-09T00:07:05;8.85;;;7.35;;
42602;SDS011;28233;55.748;48.752;2023-07-09T00:09:17;7.97;;;6.93;;
42602;SDS011;28233;55.748;48.752;2023-07-09T00:11:22;8.77;;;7.20;;
42602;SDS011;28233;55.748;48.752;2023-07-09T00:13:25;9.63;;;6.53;;
42602;SDS011;28233;55.748;48.752;2023-07-09T00:15:29;13.73;;;6.57;;
42602;SDS011;28233;55.748;48.752;2023-07-09T00:17:32;7.68;;;6.68;;
42602;SDS011;28233;55.748;48.752;2023-07-09T00:19:36;6.22;;;5.60;;
42602;SDS011;28233;55.748;48.752;2023-07-09T00:21:39;7.68;;;6.20;;
42602;SDS011;28233;55.748;48.752;2023-07-09T00:23:43;9.75;;;6.60;;
42602;SDS011;28233;55.748;48.752;2023-07-09T00:25:46;10.98;;;7.03;;
42602;SDS011;28233;55.748;48.752;2023-07-09T00:27:49;9.13;;;6.53;;
42602;SDS011;28233;55.748;48.752;2023-07-09T00:29:53;8.95;;;6.15;;
42602;SDS011;28233;55.748;48.752;2023-07-09T00:31:56;11.02;;;8.45;;
42602;SDS011;28233;55.748;48.752;2023-07-09T00:33:59;9.68;;;7.82;;
42602;SDS011;28233;55.748;48.752;2023-07-09T00:36:04;9.90;;;6.72;;
42602;SDS011;28233;55.748;48.752;2023-07-09T00:38:21;8.02;;;7.22;;
42602;SDS011;28233;55.748;48.752;2023-07-09T00:40:24;10.68;;;7.85;;
42602;SDS011;28233;55.748;48.752;2023-07-09T00:42:27;10.95;;;9.15;;
42602;SDS011;28233;55.748;48.752;2023-07-09T00:44:31;13.38;;;7.43;;
42602;SDS011;28233;55.748;48.752;2023-07-09T00:48:38;9.60;;;8.60;;
42602;SDS011;28233;55.748;48.752;2023-07-09T00:50:49;9.25;;;6.43;;
42602;SDS011;28233;55.748;48.752;2023-07-09T00:52:57;10.63;;;7.82;;
42602;SDS011;28233;55.748;48.752;2023-07-09T00:55:06;8.98;;;7.32;;
42602;SDS011;28233;55.748;48.752;2023-07-09T00:57:14;9.32;;;8.15;;
42602;SDS011;28233;55.748;48.752;2023-07-09T00:59:22;13.65;;;8.80;;
42602;SDS011;28233;55.748;48.752;2023-07-09T01:01:34;10.15;;;7.40;;
42602;SDS011;28233;55.748;48.752;2023-07-09T01:06:01;11.68;;;6.90;;
42602;SDS011;28233;55.748;48.752;2023-07-09T01:08:06;11.32;;;8.00;;
42602;SDS011;28233;55.748;48.752;2023-07-09T01:10:15;9.20;;;7.32;;
42602;SDS011;28233;55.748;48.752;2023-07-09T01:12:20;8.05;;;7.00;;
42602;SDS011;28233;55.748;48.752;2023-07-09T01:14:23;9.07;;;6.53;;
42602;SDS011;28233;55.748;48.752;2023-07-09T01:16:29;9.80;;;7.75;;
42602;SDS011;28233;55.748;48.752;2023-07-09T01:18:34;11.65;;;7.22;;
42602;SDS011;28233;55.748;48.752;2023-07-09T01:20:39;7.75;;;6.75;;
42602;SDS011;28233;55.748;48.752;2023-07-09T01:22:42;7.53;;;6.63;;
42602;SDS011;28233;55.748;48.752;2023-07-09T01:24:49;7.63;;;6.47;;
42602;SDS011;28233;55.748;48.752;2023-07-09T01:27:10;12.02;;;7.93;;
42602;SDS011;28233;55.748;48.752;2023-07-09T01:29:13;7.93;;;6.72;;
42602;SDS011;28233;55.748;48.752;2023-07-09T01:31:16;13.32;;;6.20;;
42602;SDS011;28233;55.748;48.752;2023-07-09T01:33:20;7.10;;;6.13;;
42602;SDS011;28233;55.748;48.752;2023-07-09T01:35:25;9.57;;;6.78;;
42602;SDS011;28233;55.748;48.752;2023-07-09T01:37:31;7.80;;;6.30;;
42602;SDS011;28233;55.748;48.752;2023-07-09T01:39:35;8.15;;;5.50;;
42602;SDS011;28233;55.748;48.752;2023-07-09T01:41:38;11.07;;;6.90;;
42602;SDS011;28233;55.748;48.752;2023-07-09T01:43:42;8.73;;;6.43;;
42602;SDS011;28233;55.748;48.752;2023-07-09T01:45:46;8.75;;;6.30;;
42602;SDS011;28233;55.748;48.752;2023-07-09T01:47:52;15.93;;;6.93;;
42602;SDS011;28233;55.748;48.752;2023-07-09T01:49:56;7.43;;;6.32;;
42602;SDS011;28233;55.748;48.752;2023-07-09T01:52:06;10.27;;;6.60;;
42602;SDS011;28233;55.748;48.752;2023-07-09T01:54:14;10.05;;;5.90;;
42602;SDS011;28233;55.748;48.752;2023-07-09T01:56:18;9.23;;;6.72;;
42602;SDS011;28233;55.748;48.752;2023-07-09T01:58:21;6.82;;;5.68;;
42602;SDS011;28233;55.748;48.752;2023-07-09T02:00:27;6.85;;;5.63;;
42602;SDS011;28233;55.748;48.752;2023-07-09T02:02:30;8.77;;;6.30;;
42602;SDS011;28233;55.748;48.752;2023-07-09T02:04:34;9.77;;;7.03;;
42602;SDS011;28233;55.748;48.752;2023-07-09T02:06:37;8.30;;;6.10;;
42602;SDS011;28233;55.748;48.752;2023-07-09T02:08:40;10.75;;;6.63;;
42602;SDS011;28233;55.748;48.752;2023-07-09T02:10:43;8.85;;;6.43;;
42602;SDS011;28233;55.748;48.752;2023-07-09T02:12:47;10.30;;;6.55;;
42602;SDS011;28233;55.748;48.752;2023-07-09T02:14:50;9.80;;;5.65;;
42602;SDS011;28233;55.748;48.752;2023-07-09T02:16:53;8.75;;;6.82;;
42602;SDS011;28233;55.748;48.752;2023-07-09T02:18:56;9.60;;;6.70;;
42602;SDS011;28233;55.748;48.752;2023-07-09T02:20:59;8.57;;;6.28;;
42602;SDS011;28233;55.748;48.752;2023-07-09T02:23:02;8.20;;;6.32;;
42602;SDS011;28233;55.748;48.752;2023-07-09T02:25:06;11.23;;;6.70;;
42602;SDS011;28233;55.748;48.752;2023-07-09T02:27:09;7.40;;;6.55;;
42602;SDS011;28233;55.748;48.752;2023-07-09T02:29:13;9.77;;;6.70;;
42602;SDS011;28233;55.748;48.752;2023-07-09T02:31:16;18.10;;;7.50;;
42602;SDS011;28233;55.748;48.752;2023-07-09T02:33:18;9.30;;;5.97;;
42602;SDS011;28233;55.748;48.752;2023-07-09T02:35:23;9.57;;;5.75;;
42602;SDS011;28233;55.748;48.752;2023-07-09T02:37:26;9.50;;;6.18;;
42602;SDS011;28233;55.748;48.752;2023-07-09T02:39:28;12.27;;;6.28;;
42602;SDS011;28233;55.748;48.752;2023-07-09T02:41:31;9.95;;;6.95;;
42602;SDS011;28233;55.748;48.752;2023-07-09T02:43:34;8.27;;;5.82;;
42602;SDS011;28233;55.748;48.752;2023-07-09T02:45:37;8.43;;;6.10;;
42602;SDS011;28233;55.748;48.752;2023-07-09T02:47:40;7.82;;;5.78;;
42602;SDS011;28233;55.748;48.752;2023-07-09T02:49:43;15.40;;;7.25;;
42602;SDS011;28233;55.748;48.752;2023-07-09T02:51:46;9.27;;;5.30;;
42602;SDS011;28233;55.748;48.752;2023-07-09T02:53:48;9.52;;;6.95;;
42602;SDS011;28233;55.748;48.752;2023-07-09T02:55:51;8.05;;;6.22;;
42602;SDS011;28233;55.748;48.752;2023-07-09T02:57:54;9.88;;;6.22;;
42602;SDS011;28233;55.748;48.752;2023-07-09T02:59:57;10.10;;;6.68;;
42602;SDS011;28233;55.748;48.752;2023-07-09T03:02:00;7.40;;;6.47;;
42602;SDS011;28233;55.748;48.752;2023-07-09T03:04:03;7.47;;;6.22;;
42602;SDS011;28233;55.748;48.752;2023-07-09T03:06:06;10.02;;;6.53;;
42602;SDS011;28233;55.748;48.752;2023-07-09T03:08:09;8.75;;;5.72;;
42602;SDS011;28233;55.748;48.752;2023-07-09T03:10:12;10.68;;;5.95;;
42602;SDS011;28233;55.748;48.752;2023-07-09T03:12:15;10.38;;;6.35;;
42602;SDS011;28233;55.748;48.752;2023-07-09T03:14:18;7.32;;;6.30;;
42602;SDS011;28233;55.748;48.752;2023-07-09T03:16:20;7.78;;;6.50;;
42602;SDS011;28233;55.748;48.752;2023-07-09T03:18:24;14.50;;;6.00;;
42602;SDS011;28233;55.748;48.752;2023-07-09T03:20:26;10.02;;;6.50;;
42602;SDS011;28233;55.748;48.752;2023-07-09T03:22:29;10.57;;;6.15;;
42602;SDS011;28233;55.748;48.752;2023-07-09T03:24:32;10.90;;;6.15;;
42602;SDS011;28233;55.748;48.752;2023-07-09T03:26:35;8.10;;;5.65;;
42602;SDS011;28233;55.748;48.752;2023-07-09T03:28:38;12.77;;;6.82;;
42602;SDS011;28233;55.748;48.752;2023-07-09T03:30:41;7.95;;;6.53;;
42602;SDS011;28233;55.748;48.752;2023-07-09T03:32:48;11.93;;;6.10;;
42602;SDS011;28233;55.748;48.752;2023-07-09T03:34:50;13.30;;;6.20;;
42602;SDS011;28233;55.748;48.752;2023-07-09T03:36:55;10.63;;;6.43;;
42602;SDS011;28233;55.748;48.752;2023-07-09T03:38:58;12.35;;;6.40;;
42602;SDS011;28233;55.748;48.752;2023-07-09T03:41:01;8.35;;;6.25;;
42602;SDS011;28233;55.748;48.752;2023-07-09T03:43:05;9.43;;;6.57;;
42602;SDS011;28233;55.748;48.752;2023-07-09T03:45:09;11.48;;;8.82;;
42602;SDS011;28233;55.748;48.752;2023-07-09T03:47:12;10.43;;;7.88;;
42602;SDS011;28233;55.748;48.752;2023-07-09T03:49:14;16.25;;;9.57;;
42602;SDS011;28233;55.748;48.752;2023-07-09T03:51:17;10.93;;;8.52;;
42602;SDS011;28233;55.748;48.752;2023-07-09T03:53:20;11.02;;;9.02;;
42602;SDS011;28233;55.748;48.752;2023-07-09T03:55:23;12.82;;;7.82;;
42602;SDS011;28233;55.748;48.752;2023-07-09T03:57:28;8.77;;;7.70;;
42602;SDS011;28233;55.748;48.752;2023-07-09T03:59:32;11.93;;;8.15;;
42602;SDS011;28233;55.748;48.752;2023-07-09T04:01:34;9.45;;;8.15;;
42602;SDS011;28233;55.748;48.752;2023-07-09T04:03:37;10.90;;;7.35;;
42602;SDS011;28233;55.748;48.752;2023-07-09T04:05:40;11.95;;;7.97;;
42602;SDS011;28233;55.748;48.752;2023-07-09T04:07:43;11.20;;;7.70;;
42602;SDS011;28233;55.748;48.752;2023-07-09T04:09:46;11.02;;;7.57;;
42602;SDS011;28233;55.748;48.752;2023-07-09T04:11:49;8.75;;;7.28;;
42602;SDS011;28233;55.748;48.752;2023-07-09T04:13:52;9.40;;;8.05;;
42602;SDS011;28233;55.748;48.752;2023-07-09T04:15:55;9.30;;;7.50;;
42602;SDS011;28233;55.748;48.752;2023-07-09T04:17:58;11.25;;;7.95;;
42602;SDS011;28233;55.748;48.752;2023-07-09T04:20:02;9.90;;;7.13;;
42602;SDS011;28233;55.748;48.752;2023-07-09T04:22:08;10.20;;;7.32;;
42602;SDS011;28233;55.748;48.752;2023-07-09T04:24:14;14.07;;;7.20;;
42602;SDS011;28233;55.748;48.752;2023-07-09T04:26:19;11.70;;;7.10;;
42602;SDS011;28233;55.748;48.752;2023-07-09T04:28:22;10.20;;;7.63;;
42602;SDS011;28233;55.748;48.752;2023-07-09T04:30:25;10.82;;;7.90;;
42602;SDS011;28233;55.748;48.752;2023-07-09T04:32:28;10.50;;;7.22;;
42602;SDS011;28233;55.748;48.752;2023-07-09T04:34:31;12.43;;;7.30;;
42602;SDS011;28233;55.748;48.752;2023-07-09T04:36:34;8.57;;;6.90;;
42602;SDS011;28233;55.748;48.752;2023-07-09T04:38:37;13.48;;;6.80;;
42602;SDS011;28233;55.748;48.752;2023-07-09T04:40:40;9.27;;;6.97;;
42602;SDS011;28233;55.748;48.752;2023-07-09T04:42:43;8.25;;;6.13;;
42602;SDS011;28233;55.748;48.752;2023-07-09T04:44:46;9.13;;;5.97;;
42602;SDS011;28233;55.748;48.752;2023-07-09T04:46:49;10.48;;;6.88;;
42602;SDS011;28233;55.748;48.752;2023-07-09T04:48:51;12.60;;;6.63;;
42602;SDS011;28233;55.748;48.752;2023-07-09T04:50:54;14.15;;;6.72;;
42602;SDS011;28233;55.748;48.752;2023-07-09T04:52:58;12.00;;;6.60;;
42602;SDS011;28233;55.748;48.752;2023-07-09T04:55:01;12.68;;;6.40;;
42602;SDS011;28233;55.748;48.752;2023-07-09T04:57:05;10.50;;;6.65;;
42602;SDS011;28233;55.748;48.752;2023-07-09T04:59:08;8.50;;;6.57;;
42602;SDS011;28233;55.748;48.752;2023-07-09T05:01:11;7.38;;;5.93;;
42602;SDS011;28233;55.748;48.752;2023-07-09T05:03:14;9.30;;;6.28;;
42602;SDS011;28233;55.748;48.752;2023-07-09T05:05:17;6.35;;;5.63;;
42602;SDS011;28233;55.748;48.752;2023-07-09T05:07:20;7.45;;;6.20;;
42602;SDS011;28233;55.748;48.752;2023-07-09T05:09:22;9.38;;;6.40;;
42602;SDS011;28233;55.748;48.752;2023-07-09T05:11:26;6.70;;;5.95;;
42602;SDS011;28233;55.748;48.752;2023-07-09T05:13:28;6.85;;;5.57;;
42602;SDS011;28233;55.748;48.752;2023-07-09T05:15:31;8.60;;;6.25;;
42602;SDS011;28233;55.748;48.752;2023-07-09T05:17:34;6.97;;;6.15;;
42602;SDS011;28233;55.748;48.752;2023-07-09T05:19:37;7.15;;;5.45;;
42602;SDS011;28233;55.748;48.752;2023-07-09T05:21:40;9.48;;;5.70;;
42602;SDS011;28233;55.748;48.752;2023-07-09T05:23:43;11.20;;;6.22;;
42602;SDS011;28233;55.748;48.752;2023-07-09T05:25:46;7.50;;;5.45;;
42602;SDS011;28233;55.748;48.752;2023-07-09T05:27:49;9.10;;;5.57;;
42602;SDS011;28233;55.748;48.752;2023-07-09T05:29:51;8.65;;;5.88;;
42602;SDS011;28233;55.748;48.752;2023-07-09T05:31:54;7.40;;;5.80;;
42602;SDS011;28233;55.748;48.752;2023-07-09T05:33:58;9.52;;;5.43;;
42602;SDS011;28233;55.748;48.752;2023-07-09T05:36:01;7.82;;;5.53;;
42602;SDS011;28233;55.748;48.752;2023-07-09T05:38:05;9.85;;;6.03;;
42602;SDS011;28233;55.748;48.752;2023-07-09T05:40:08;6.65;;;5.20;;
42602;SDS011;28233;55.748;48.752;2023-07-09T05:42:11;7.90;;;5.03;;
42602;SDS011;28233;55.748;48.752;2023-07-09T05:44:14;7.88;;;5.78;;
42602;SDS011;28233;55.748;48.752;2023-07-09T05:46:16;6.53;;;5.13;;
42602;SDS011;28233;55.748;48.752;2023-07-09T05:48:19;7.47;;;5.13;;
42602;SDS011;28233;55.748;48.752;2023-07-09T05:50:22;7.05;;;5.43;;
42602;SDS011;28233;55.748;48.752;2023-07-09T05:52:25;5.43;;;4.85;;
42602;SDS011;28233;55.748;48.752;2023-07-09T05:54:28;6.78;;;4.80;;
42602;SDS011;28233;55.748;48.752;2023-07-09T05:56:30;5.80;;;4.82;;
42602;SDS011;28233;55.748;48.752;2023-07-09T05:58:33;8.18;;;4.82;;
42602;SDS011;28233;55.748;48.752;2023-07-09T06:00:36;6.40;;;5.13;;
42602;SDS011;28233;55.748;48.752;2023-07-09T06:02:39;6.50;;;5.30;;
42602;SDS011;28233;55.748;48.752;2023-07-09T06:04:43;5.35;;;4.50;;
42602;SDS011;28233;55.748;48.752;2023-07-09T06:06:46;9.88;;;5.05;;
42602;SDS011;28233;55.748;48.752;2023-07-09T06:08:49;6.15;;;4.97;;
42602;SDS011;28233;55.748;48.752;2023-07-09T06:13:02;7.32;;;4.65;;
42602;SDS011;28233;55.748;48.752;2023-07-09T06:15:06;5.47;;;4.10;;
42602;SDS011;28233;55.748;48.752;2023-07-09T06:17:09;5.40;;;3.97;;
42602;SDS011;28233;55.748;48.752;2023-07-09T06:19:12;7.85;;;4.63;;
42602;SDS011;28233;55.748;48.752;2023-07-09T06:21:15;6.85;;;4.60;;
42602;SDS011;28233;55.748;48.752;2023-07-09T06:23:18;5.78;;;4.38;;
42602;SDS011;28233;55.748;48.752;2023-07-09T06:25:21;5.50;;;4.35;;
42602;SDS011;28233;55.748;48.752;2023-07-09T06:27:24;5.63;;;4.75;;
42602;SDS011;28233;55.748;48.752;2023-07-09T06:29:27;5.78;;;4.72;;
42602;SDS011;28233;55.748;48.752;2023-07-09T06:31:29;6.07;;;4.75;;
42602;SDS011;28233;55.748;48.752;2023-07-09T06:33:35;5.13;;;4.22;;
42602;SDS011;28233;55.748;48.752;2023-07-09T06:35:38;8.38;;;4.95;;
42602;SDS011;28233;55.748;48.752;2023-07-09T06:37:41;5.07;;;4.57;;
42602;SDS011;28233;55.748;48.752;2023-07-09T06:39:44;5.55;;;4.97;;
42602;SDS011;28233;55.748;48.752;2023-07-09T06:41:48;6.55;;;5.05;;
42602;SDS011;28233;55.748;48.752;2023-07-09T06:43:50;8.60;;;4.68;;
42602;SDS011;28233;55.748;48.752;2023-07-09T06:47:57;9.63;;;5.72;;
42602;SDS011;28233;55.748;48.752;2023-07-09T06:50:01;5.15;;;4.45;;
42602;SDS011;28233;55.748;48.752;2023-07-09T06:52:05;5.80;;;5.25;;
42602;SDS011;28233;55.748;48.752;2023-07-09T06:54:08;5.70;;;4.95;;
42602;SDS011;28233;55.748;48.752;2023-07-09T06:56:11;6.25;;;5.30;;
42602;SDS011;28233;55.748;48.752;2023-07-09T06:58:15;6.72;;;5.63;;
42602;SDS011;28233;55.748;48.752;2023-07-09T07:00:19;8.02;;;4.60;;
42602;SDS011;28233;55.748;48.752;2023-07-09T07:02:22;7.63;;;4.47;;
42602;SDS011;28233;55.748;48.752;2023-07-09T07:04:25;7.65;;;5.28;;
42602;SDS011;28233;55.748;48.752;2023-07-09T07:06:29;6.57;;;4.50;;
42602;SDS011;28233;55.748;48.752;2023-07-09T07:08:33;8.60;;;5.10;;
42602;SDS011;28233;55.748;48.752;2023-07-09T07:10:36;4.53;;;4.07;;
42602;SDS011;28233;55.748;48.752;2023-07-09T07:12:43;14.93;;;6.28;;
42602;SDS011;28233;55.748;48.752;2023-07-09T07:14:47;5.65;;;4.85;;
42602;SDS011;28233;55.748;48.752;2023-07-09T07:16:50;4.93;;;4.45;;
42602;SDS011;28233;55.748;48.752;2023-07-09T07:18:53;6.40;;;4.90;;
42602;SDS011;28233;55.748;48.752;2023-07-09T07:20:56;8.50;;;6.13;;
42602;SDS011;28233;55.748;48.752;2023-07-09T07:22:59;8.10;;;6.15;;
42602;SDS011;28233;55.748;48.752;2023-07-09T07:25:03;7.20;;;5.10;;
42602;SDS011;28233;55.748;48.752;2023-07-09T07:27:07;6.45;;;5.68;;
42602;SDS011;28233;55.748;48.752;2023-07-09T07:29:10;6.32;;;5.43;;
42602;SDS011;28233;55.748;48.752;2023-07-09T07:31:13;6.90;;;5.15;;
42602;SDS011;28233;55.748;48.752;2023-07-09T07:33:16;6.65;;;5.32;;
42602;SDS011;28233;55.748;48.752;2023-07-09T07:35:19;6.72;;;5.68;;
42602;SDS011;28233;55.748;48.752;2023-07-09T07:37:22;7.47;;;5.78;;
42602;SDS011;28233;55.748;48.752;2023-07-09T07:39:25;11.05;;;5.68;;
42602;SDS011;28233;55.748;48.752;2023-07-09T07:41:27;10.05;;;5.60;;
42602;SDS011;28233;55.748;48.752;2023-07-09T07:43:30;6.88;;;5.50;;
42602;SDS011;28233;55.748;48.752;2023-07-09T07:45:33;8.27;;;6.40;;
42602;SDS011;28233;55.748;48.752;2023-07-09T07:47:36;6.57;;;5.78;;
42602;SDS011;28233;55.748;48.752;2023-07-09T07:49:39;8.00;;;5.93;;
42602;SDS011;28233;55.748;48.752;2023-07-09T07:51:42;9.73;;;6.85;;
42602;SDS011;28233;55.748;48.752;2023-07-09T07:53:46;9.15;;;7.28;;
42602;SDS011;28233;55.748;48.752;2023-07-09T07:55:49;8.52;;;6.38;;
42602;SDS011;28233;55.748;48.752;2023-07-09T07:57:52;10.07;;;6.38;;
42602;SDS011;28233;55.748;48.752;2023-07-09T07:59:55;7.82;;;6.22;;
42602;SDS011;28233;55.748;48.752;2023-07-09T08:01:58;11.32;;;6.85;;
42602;SDS011;28233;55.748;48.752;2023-07-09T08:04:02;10.13;;;6.82;;
42602;SDS011;28233;55.748;48.752;2023-07-09T08:06:05;11.20;;;6.55;;
42602;SDS011;28233;55.748;48.752;2023-07-09T08:08:09;7.32;;;6.05;;
42602;SDS011;28233;55.748;48.752;2023-07-09T08:10:13;7.15;;;6.28;;
42602;SDS011;28233;55.748;48.752;2023-07-09T08:12:15;10.30;;;6.90;;
42602;SDS011;28233;55.748;48.752;2023-07-09T08:14:19;7.18;;;6.47;;
42602;SDS011;28233;55.748;48.752;2023-07-09T08:16:22;11.35;;;7.85;;
42602;SDS011;28233;55.748;48.752;2023-07-09T08:18:24;9.02;;;6.90;;
42602;SDS011;28233;55.748;48.752;2023-07-09T08:20:27;9.05;;;7.03;;
42602;SDS011;28233;55.748;48.752;2023-07-09T08:22:30;9.27;;;7.20;;
42602;SDS011;28233;55.748;48.752;2023-07-09T08:24:33;9.98;;;7.00;;
42602;SDS011;28233;55.748;48.752;2023-07-09T08:26:36;8.68;;;7.07;;
42602;SDS011;28233;55.748;48.752;2023-07-09T08:28:40;12.88;;;7.47;;
42602;SDS011;28233;55.748;48.752;2023-07-09T08:30:43;10.25;;;6.88;;
42602;SDS011;28233;55.748;48.752;2023-07-09T08:32:46;10.90;;;6.47;;
42602;SDS011;28233;55.748;48.752;2023-07-09T08:34:49;6.43;;;5.65;;
42602;SDS011;28233;55.748;48.752;2023-07-09T08:37:12;7.85;;;5.97;;
42602;SDS011;28233;55.748;48.752;2023-07-09T08:39:14;9.65;;;5.65;;
42602;SDS011;28233;55.748;48.752;2023-07-09T08:43:47;6.93;;;5.78;;
42602;SDS011;28233;55.748;48.752;2023-07-09T08:46:12;8.40;;;5.45;;
42602;SDS011;28233;55.748;48.752;2023-07-09T08:48:32;10.02;;;6.05;;
42602;SDS011;28233;55.748;48.752;2023-07-09T08:50:45;9.23;;;6.15;;
42602;SDS011;28233;55.748;48.752;2023-07-09T08:52:53;10.18;;;6.05;;
42602;SDS011;28233;55.748;48.752;2023-07-09T08:55:00;8.15;;;6.35;;
42602;SDS011;28233;55.748;48.752;2023-07-09T08:59:19;8.15;;;6.13;;
42602;SDS011;28233;55.748;48.752;2023-07-09T09:01:24;7.13;;;6.15;;
42602;SDS011;28233;55.748;48.752;2023-07-09T09:03:40;9.73;;;6.03;;
42602;SDS011;28233;55.748;48.752;2023-07-09T09:05:46;8.80;;;6.63;;
42602;SDS011;28233;55.748;48.752;2023-07-09T09:07:56;7.75;;;5.22;;
42602;SDS011;28233;55.748;48.752;2023-07-09T09:10:29;8.05;;;5.35;;
42602;SDS011;28233;55.748;48.752;2023-07-09T09:12:37;7.72;;;6.28;;
42602;SDS011;28233;55.748;48.752;2023-07-09T09:14:44;7.90;;;5.78;;
42602;SDS011;28233;55.748;48.752;2023-07-09T09:16:54;7.38;;;6.25;;
42602;SDS011;28233;55.748;48.752;2023-07-09T09:18:59;9.10;;;5.90;;
42602;SDS011;28233;55.748;48.752;2023-07-09T09:21:18;6.53;;;5.80;;
42602;SDS011;28233;55.748;48.752;2023-07-09T09:23:28;6.57;;;5.88;;
42602;SDS011;28233;55.748;48.752;2023-07-09T09:25:41;7.53;;;6.13;;
42602;SDS011;28233;55.748;48.752;2023-07-09T09:27:49;9.30;;;6.68;;
42602;SDS011;28233;55.748;48.752;2023-07-09T09:29:52;7.50;;;6.47;;
42602;SDS011;28233;55.748;48.752;2023-07-09T09:31:55;7.38;;;5.68;;
42602;SDS011;28233;55.748;48.752;2023-07-09T09:34:01;10.75;;;7.18;;
42602;SDS011;28233;55.748;48.752;2023-07-09T09:36:03;9.27;;;6.32;;
42602;SDS011;28233;55.748;48.752;2023-07-09T09:38:12;7.45;;;6.35;;
42602;SDS011;28233;55.748;48.752;2023-07-09T09:40:22;7.78;;;6.65;;
42602;SDS011;28233;55.748;48.752;2023-07-09T09:42:26;7.55;;;5.75;;
42602;SDS011;28233;55.748;48.752;2023-07-09T09:44:28;8.95;;;7.00;;
42602;SDS011;28233;55.748;48.752;2023-07-09T09:46:32;8.40;;;6.93;;
42602;SDS011;28233;55.748;48.752;2023-07-09T09:48:36;8.88;;;6.68;;
42602;SDS011;28233;55.748;48.752;2023-07-09T09:50:40;12.07;;;6.22;;
42602;SDS011;28233;55.748;48.752;2023-07-09T09:52:43;10.55;;;7.18;;
42602;SDS011;28233;55.748;48.752;2023-07-09T09:55:01;10.75;;;6.57;;
42602;SDS011;28233;55.748;48.752;2023-07-09T09:57:15;9.93;;;7.10;;
42602;SDS011;28233;55.748;48.752;2023-07-09T09:59:35;7.90;;;6.85;;
42602;SDS011;28233;55.748;48.752;2023-07-09T10:01:39;8.00;;;6.95;;
42602;SDS011;28233;55.748;48.752;2023-07-09T10:03:42;9.23;;;6.45;;
42602;SDS011;28233;55.748;48.752;2023-07-09T10:05:50;11.57;;;6.00;;
42602;SDS011;28233;55.748;48.752;2023-07-09T10:08:07;6.38;;;5.78;;
42602;SDS011;28233;55.748;48.752;2023-07-09T10:10:18;11.05;;;6.20;;
42602;SDS011;28233;55.748;48.752;2023-07-09T10:17:36;9.23;;;5.90;;
42602;SDS011;28233;55.748;48.752;2023-07-09T10:22:49;12.68;;;6.63;;
42602;SDS011;28233;55.748;48.752;2023-07-09T10:25:13;8.10;;;6.18;;
42602;SDS011;28233;55.748;48.752;2023-07-09T10:39:16;10.50;;;6.47;;
42602;SDS011;28233;55.748;48.752;2023-07-09T10:41:25;7.90;;;6.25;;
42602;SDS011;28233;55.748;48.752;2023-07-09T10:43:41;8.27;;;6.22;;
42602;SDS011;28233;55.748;48.752;2023-07-09T10:45:56;10.57;;;7.00;;
42602;SDS011;28233;55.748;48.752;2023-07-09T10:48:17;8.77;;;5.75;;
42602;SDS011;28233;55.748;48.752;2023-07-09T10:50:33;9.55;;;5.85;;
42602;SDS011;28233;55.748;48.752;2023-07-09T10:52:41;10.38;;;6.05;;
42602;SDS011;28233;55.748;48.752;2023-07-09T10:59:51;7.60;;;5.93;;
42602;SDS011;28233;55.748;48.752;2023-07-09T11:01:57;13.77;;;6.53;;
42602;SDS011;28233;55.748;48.752;2023-07-09T11:04:27;7.70;;;6.45;;
42602;SDS011;28233;55.748;48.752;2023-07-09T11:08:47;11.15;;;5.60;;
42602;SDS011;28233;55.748;48.752;2023-07-09T11:10:54;8.25;;;5.65;;
42602;SDS011;28233;55.748;48.752;2023-07-09T11:15:48;8.02;;;5.78;;
42602;SDS011;28233;55.748;48.752;2023-07-09T11:17:52;7.68;;;5.57;;
42602;SDS011;28233;55.748;48.752;2023-07-09T11:19:58;10.15;;;5.85;;
42602;SDS011;28233;55.748;48.752;2023-07-09T11:22:04;13.13;;;5.30;;
42602;SDS011;28233;55.748;48.752;2023-07-09T11:24:24;12.15;;;6.32;;
42602;SDS011;28233;55.748;48.752;2023-07-09T11:26:50;13.60;;;6.32;;
42602;SDS011;28233;55.748;48.752;2023-07-09T11:28:54;19.60;;;7.47;;
42602;SDS011;28233;55.748;48.752;2023-07-09T11:33:45;10.98;;;6.03;;
42602;SDS011;28233;55.748;48.752;2023-07-09T11:35:50;8.93;;;6.15;;
42602;SDS011;28233;55.748;48.752;2023-07-09T11:37:56;8.80;;;5.90;;
42602;SDS011;28233;55.748;48.752;2023-07-09T11:40:11;7.38;;;5.30;;
42602;SDS011;28233;55.748;48.752;2023-07-09T11:42:34;7.68;;;5.55;;
42602;SDS011;28233;55.748;48.752;2023-07-09T11:44:51;12.70;;;5.45;;
42602;SDS011;28233;55.748;48.752;2023-07-09T11:49:25;8.25;;;4.40;;
42602;SDS011;28233;55.748;48.752;2023-07-09T11:53:49;11.60;;;5.95;;
42602;SDS011;28233;55.748;48.752;2023-07-09T11:55:54;14.32;;;6.80;;
42602;SDS011;28233;55.748;48.752;2023-07-09T11:57:59;9.90;;;5.95;;
42602;SDS011;28233;55.748;48.752;2023-07-09T12:00:03;9.45;;;6.07;;
42602;SDS011;28233;55.748;48.752;2023-07-09T12:02:12;9.85;;;5.65;;
42602;SDS011;28233;55.748;48.752;2023-07-09T12:04:20;13.00;;;6.50;;
42602;SDS011;28233;55.748;48.752;2023-07-09T12:06:29;10.90;;;5.90;;
42602;SDS011;28233;55.748;48.752;2023-07-09T12:08:36;13.60;;;5.03;;
42602;SDS011;28233;55.748;48.752;2023-07-09T12:10:41;6.47;;;5.43;;
42602;SDS011;28233;55.748;48.752;2023-07-09T12:12:44;8.90;;;5.18;;
42602;SDS011;28233;55.748;48.752;2023-07-09T12:14:47;8.93;;;5.15;;
42602;SDS011;28233;55.748;48.752;2023-07-09T12:16:51;11.57;;;5.50;;
42602;SDS011;28233;55.748;48.752;2023-07-09T12:18:55;10.60;;;5.20;;
42602;SDS011;28233;55.748;48.752;2023-07-09T12:20:58;8.57;;;6.38;;
42602;SDS011;28233;55.748;48.752;2023-07-09T12:27:34;10.00;;;5.10;;
42602;SDS011;28233;55.748;48.752;2023-07-09T12:29:40;7.30;;;4.93;;
42602;SDS011;28233;55.748;48.752;2023-07-09T12:31:42;5.88;;;4.72;;
42602;SDS011;28233;55.748;48.752;2023-07-09T12:33:49;7.25;;;5.07;;
42602;SDS011;28233;55.748;48.752;2023-07-09T12:35:58;8.52;;;6.15;;
42602;SDS011;28233;55.748;48.752;2023-07-09T12:38:03;9.88;;;6.45;;
42602;SDS011;28233;55.748;48.752;2023-07-09T12:40:22;9.98;;;5.53;;
42602;SDS011;28233;55.748;48.752;2023-07-09T12:42:31;9.82;;;5.40;;
42602;SDS011;28233;55.748;48.752;2023-07-09T12:44:37;7.72;;;5.75;;
42602;SDS011;28233;55.748;48.752;2023-07-09T12:46:40;8.70;;;6.07;;
42602;SDS011;28233;55.748;48.752;2023-07-09T12:48:46;8.13;;;6.10;;
42602;SDS011;28233;55.748;48.752;2023-07-09T12:50:50;7.13;;;5.63;;
42602;SDS011;28233;55.748;48.752;2023-07-09T12:52:53;6.57;;;5.70;;
42602;SDS011;28233;55.748;48.752;2023-07-09T12:54:58;9.98;;;5.55;;
42602;SDS011;28233;55.748;48.752;2023-07-09T12:57:13;7.95;;;5.45;;
42602;SDS011;28233;55.748;48.752;2023-07-09T12:59:21;7.35;;;5.65;;
42602;SDS011;28233;55.748;48.752;2023-07-09T13:01:28;9.18;;;6.32;;
42602;SDS011;28233;55.748;48.752;2023-07-09T13:03:37;7.82;;;5.63;;
42602;SDS011;28233;55.748;48.752;2023-07-09T13:05:50;7.95;;;5.72;;
42602;SDS011;28233;55.748;48.752;2023-07-09T13:07:59;8.80;;;5.50;;
42602;SDS011;28233;55.748;48.752;2023-07-09T13:12:16;18.65;;;7.20;;
42602;SDS011;28233;55.748;48.752;2023-07-09T13:14:29;8.85;;;6.25;;
42602;SDS011;28233;55.748;48.752;2023-07-09T13:16:37;9.10;;;5.68;;
42602;SDS011;28233;55.748;48.752;2023-07-09T13:18:45;8.40;;;5.97;;